sensor_id;sensor_type;location;lat;lon;timestamp;pressure;altitude;pressure_sealevel;temperature;humidity
3844;BME280;1937;51.444;6.484;2023-04-10T09:02:08;67777.88;;;14.56;50.83
3844;BME280;1937;51.444;6.484;2023-04-10T09:04:35;67755.50;;;14.39;52.12
3844;BME280;1937;51.444;6.484;2023-04-10T09:07:02;67714.66;;;14.19;52.52
3844;BME280;1937;51.444;6.484;2023-04-10T09:09:28;67708.22;;;14.34;51.86
3844;BME280;1937;51.444;6.484;2023-04-10T09:11:58;67712.31;;;14.17;52.59
3844;BME280;1937;51.444;6.484;2023-04-10T09:14:26;67773.75;;;14.68;52.44
3844;BME280;1937;51.444;6.484;2023-04-10T09:17:20;67831.72;;;14.76;51.03
3844;BME280;1937;51.444;6.484;2023-04-10T09:19:48;67738.31;;;14.26;52.42
3844;BME280;1937;51.444;6.484;2023-04-10T09:22:17;67727.19;;;14.32;52.79
3844;BME280;1937;51.444;6.484;2023-04-10T09:24:45;67734.06;;;14.29;53.65
3844;BME280;1937;51.444;6.484;2023-04-10T09:27:27;67760.34;;;14.37;52.29
3844;BME280;1937;51.444;6.484;2023-04-10T09:29:55;67761.84;;;14.60;53.17
3844;BME280;1937;51.444;6.484;2023-04-10T09:32:47;67785.22;;;14.65;52.41
3844;BME280;1937;51.444;6.484;2023-04-10T09:35:14;67893.13;;;15.02;52.63
3844;BME280;1937;51.444;6.484;2023-04-10T09:37:43;67868.78;;;15.10;51.06
3844;BME280;1937;51.444;6.484;2023-04-10T09:40:19;67885.50;;;15.11;51.74
3844;BME280;1937;51.444;6.484;2023-04-10T09:42:47;67855.88;;;15.15;51.32
3844;BME280;1937;51.444;6.484;2023-04-10T09:45:13;67969.16;;;15.37;51.59
3844;BME280;1937;51.444;6.484;2023-04-10T09:48:01;67832.09;;;15.03;51.17
3844;BME280;1937;51.444;6.484;2023-04-10T09:50:35;67786.31;;;14.82;52.51
3844;BME280;1937;51.444;6.484;2023-04-10T09:53:01;67885.25;;;15.13;52.03
3844;BME280;1937;51.444;6.484;2023-04-10T09:55:29;67979.94;;;15.64;51.80
3844;BME280;1937;51.444;6.484;2023-04-10T09:57:56;67921.88;;;15.36;51.17
3844;BME280;1937;51.444;6.484;2023-04-10T10:00:24;67989.78;;;15.88;50.73
3844;BME280;1937;51.444;6.484;2023-04-10T10:02:53;68140.56;;;16.58;49.69
3844;BME280;1937;51.444;6.484;2023-04-10T10:05:22;67990.19;;;15.95;49.78
3844;BME280;1937;51.444;6.484;2023-04-10T10:07:52;68074.00;;;16.25;49.86
3844;BME280;1937;51.444;6.484;2023-04-10T10:10:19;68007.97;;;15.88;50.14
3844;BME280;1937;51.444;6.484;2023-04-10T10:12:49;68019.63;;;15.98;50.68
3844;BME280;1937;51.444;6.484;2023-04-10T10:15:21;67954.19;;;15.78;50.41
3844;BME280;1937;51.444;6.484;2023-04-10T10:17:58;68081.38;;;16.38;49.74
3844;BME280;1937;51.444;6.484;2023-04-10T10:20:30;68048.22;;;16.19;50.42
3844;BME280;1937;51.444;6.484;2023-04-10T10:23:01;67993.56;;;15.89;49.96
3844;BME280;1937;51.444;6.484;2023-04-10T10:25:29;67987.97;;;15.82;49.64
3844;BME280;1937;51.444;6.484;2023-04-10T10:27:59;67973.78;;;15.77;50.37
3844;BME280;1937;51.444;6.484;2023-04-10T10:30:30;67981.22;;;15.74;50.96
3844;BME280;1937;51.444;6.484;2023-04-10T10:32:57;67936.06;;;15.62;50.01
3844;BME280;1937;51.444;6.484;2023-04-10T10:35:25;67977.34;;;15.84;50.63
3844;BME280;1937;51.444;6.484;2023-04-10T10:37:54;67988.13;;;15.71;50.72
3844;BME280;1937;51.444;6.484;2023-04-10T10:40:25;67947.81;;;15.77;50.34
3844;BME280;1937;51.444;6.484;2023-04-10T10:42:59;67968.09;;;15.85;51.41
3844;BME280;1937;51.444;6.484;2023-04-10T10:45:33;68047.63;;;16.18;51.07
3844;BME280;1937;51.444;6.484;2023-04-10T10:48:06;67976.41;;;15.81;49.87
3844;BME280;1937;51.444;6.484;2023-04-10T10:50:51;67980.25;;;15.87;50.88
3844;BME280;1937;51.444;6.484;2023-04-10T10:53:44;68034.88;;;16.16;50.10
3844;BME280;1937;51.444;6.484;2023-04-10T10:56:33;68016.75;;;16.21;50.24
3844;BME280;1937;51.444;6.484;2023-04-10T10:59:00;68000.38;;;16.02;49.64
3844;BME280;1937;51.444;6.484;2023-04-10T11:01:27;68003.03;;;16.07;50.37
3844;BME280;1937;51.444;6.484;2023-04-10T11:03:54;68055.53;;;16.27;49.09
3844;BME280;1937;51.444;6.484;2023-04-10T11:06:48;68094.88;;;16.55;49.30
3844;BME280;1937;51.444;6.484;2023-04-10T11:12:18;68085.16;;;16.39;49.33
3844;BME280;1937;51.444;6.484;2023-04-10T11:14:56;68002.63;;;16.00;49.26
3844;BME280;1937;51.444;6.484;2023-04-10T11:17:48;68063.72;;;16.34;49.42
3844;BME280;1937;51.444;6.484;2023-04-10T11:20:18;68058.41;;;16.25;48.94
3844;BME280;1937;51.444;6.484;2023-04-10T11:23:08;68055.47;;;16.23;48.91
3844;BME280;1937;51.444;6.484;2023-04-10T11:25:46;68056.44;;;16.30;49.17
3844;BME280;1937;51.444;6.484;2023-04-10T11:28:38;68138.25;;;16.76;48.57
3844;BME280;1937;51.444;6.484;2023-04-10T11:31:18;68094.63;;;16.57;48.07
3844;BME280;1937;51.444;6.484;2023-04-10T11:33:47;68162.69;;;16.89;47.91
3844;BME280;1937;51.444;6.484;2023-04-10T11:36:15;68163.72;;;17.01;47.74
3844;BME280;1937;51.444;6.484;2023-04-10T11:38:53;68103.81;;;16.71;47.34
3844;BME280;1937;51.444;6.484;2023-04-10T11:41:20;68242.59;;;17.19;47.87
3844;BME280;1937;51.444;6.484;2023-04-10T11:43:53;68225.22;;;17.18;47.46
3844;BME280;1937;51.444;6.484;2023-04-10T11:46:19;68222.22;;;17.31;47.19
3844;BME280;1937;51.444;6.484;2023-04-10T11:48:46;68243.69;;;17.36;47.14
3844;BME280;1937;51.444;6.484;2023-04-10T11:51:13;68234.75;;;17.40;47.26
3844;BME280;1937;51.444;6.484;2023-04-10T11:53:40;68253.50;;;17.56;48.03
3844;BME280;1937;51.444;6.484;2023-04-10T11:56:18;68332.16;;;17.72;47.26
3844;BME280;1937;51.444;6.484;2023-04-10T11:58:48;68228.97;;;17.39;46.57
3844;BME280;1937;51.444;6.484;2023-04-10T12:01:20;68188.50;;;17.40;47.94
3844;BME280;1937;51.444;6.484;2023-04-10T12:03:47;68253.91;;;17.43;48.03
3844;BME280;1937;51.444;6.484;2023-04-10T12:06:14;68331.88;;;17.74;46.76
3844;BME280;1937;51.444;6.484;2023-04-10T12:08:42;68276.75;;;17.63;46.81
3844;BME280;1937;51.444;6.484;2023-04-10T12:11:10;68257.75;;;17.48;47.62
3844;BME280;1937;51.444;6.484;2023-04-10T12:13:37;68249.00;;;17.45;47.20
3844;BME280;1937;51.444;6.484;2023-04-10T12:16:06;68234.50;;;17.42;47.37
3844;BME280;1937;51.444;6.484;2023-04-10T12:18:35;68228.47;;;17.43;46.66
3844;BME280;1937;51.444;6.484;2023-04-10T12:21:03;68266.06;;;17.44;48.31
3844;BME280;1937;51.444;6.484;2023-04-10T12:23:30;68264.97;;;17.48;47.30
3844;BME280;1937;51.444;6.484;2023-04-10T12:26:09;68260.59;;;17.46;46.50
3844;BME280;1937;51.444;6.484;2023-04-10T12:28:37;68298.09;;;17.58;47.05
3844;BME280;1937;51.444;6.484;2023-04-10T12:31:05;68329.13;;;17.85;47.31
3844;BME280;1937;51.444;6.484;2023-04-10T12:33:32;68345.94;;;18.07;45.75
3844;BME280;1937;51.444;6.484;2023-04-10T12:36:00;68401.97;;;18.37;45.69
3844;BME280;1937;51.444;6.484;2023-04-10T12:38:40;68392.91;;;18.31;45.47
3844;BME280;1937;51.444;6.484;2023-04-10T12:41:08;68351.94;;;18.00;46.01
3844;BME280;1937;51.444;6.484;2023-04-10T12:43:37;68287.78;;;17.88;45.45
3844;BME280;1937;51.444;6.484;2023-04-10T12:46:04;68311.09;;;17.99;47.38
3844;BME280;1937;51.444;6.484;2023-04-10T12:48:31;68346.13;;;18.00;46.00
3844;BME280;1937;51.444;6.484;2023-04-10T12:51:00;68380.25;;;17.98;45.77
3844;BME280;1937;51.444;6.484;2023-04-10T12:53:27;68372.44;;;18.18;46.50
3844;BME280;1937;51.444;6.484;2023-04-10T12:55:58;68274.00;;;17.74;46.06
3844;BME280;1937;51.444;6.484;2023-04-10T12:58:26;68320.75;;;17.85;46.99
3844;BME280;1937;51.444;6.484;2023-04-10T13:00:57;68265.03;;;17.73;46.70
3844;BME280;1937;51.444;6.484;2023-04-10T13:03:24;68297.81;;;17.81;46.59
3844;BME280;1937;51.444;6.484;2023-04-10T13:05:51;68269.44;;;17.58;47.44
3844;BME280;1937;51.444;6.484;2023-04-10T13:08:20;68263.41;;;17.60;47.55
3844;BME280;1937;51.444;6.484;2023-04-10T13:10:46;68311.78;;;17.84;47.71
3844;BME280;1937;51.444;6.484;2023-04-10T13:13:13;68379.94;;;18.16;46.86
3844;BME280;1937;51.444;6.484;2023-04-10T13:15:40;68336.16;;;17.91;46.16
3844;BME280;1937;51.444;6.484;2023-04-10T13:18:07;68368.66;;;18.17;45.69
3844;BME280;1937;51.444;6.484;2023-04-10T13:20:35;68500.03;;;18.29;45.37
3844;BME280;1937;51.444;6.484;2023-04-10T13:23:02;68386.53;;;18.30;46.66
3844;BME280;1937;51.444;6.484;2023-04-10T13:25:32;68465.78;;;18.63;45.80
3844;BME280;1937;51.444;6.484;2023-04-10T13:27:59;68490.94;;;19.00;44.66
3844;BME280;1937;51.444;6.484;2023-04-10T13:30:26;68529.69;;;19.13;43.69
3844;BME280;1937;51.444;6.484;2023-04-10T13:32:53;68538.31;;;19.07;43.13
3844;BME280;1937;51.444;6.484;2023-04-10T13:35:20;68574.50;;;19.25;42.86
3844;BME280;1937;51.444;6.484;2023-04-10T13:37:46;68529.94;;;19.11;42.88
3844;BME280;1937;51.444;6.484;2023-04-10T13:40:17;68596.63;;;19.51;41.82
3844;BME280;1937;51.444;6.484;2023-04-10T13:42:45;68538.28;;;19.28;41.48
3844;BME280;1937;51.444;6.484;2023-04-10T13:45:12;68534.72;;;19.20;41.49
3844;BME280;1937;51.444;6.484;2023-04-10T13:47:39;68589.09;;;19.49;41.73
3844;BME280;1937;51.444;6.484;2023-04-10T13:50:06;68602.91;;;19.43;40.83
3844;BME280;1937;51.444;6.484;2023-04-10T13:52:33;68517.66;;;19.26;40.91
3844;BME280;1937;51.444;6.484;2023-04-10T13:54:59;68521.19;;;19.29;41.91
3844;BME280;1937;51.444;6.484;2023-04-10T13:57:26;68560.66;;;19.51;42.08
3844;BME280;1937;51.444;6.484;2023-04-10T13:59:54;68576.03;;;19.49;42.38
3844;BME280;1937;51.444;6.484;2023-04-10T14:02:20;68602.13;;;19.69;40.52
3844;BME280;1937;51.444;6.484;2023-04-10T14:04:47;68558.41;;;19.13;41.73
3844;BME280;1937;51.444;6.484;2023-04-10T14:07:15;68514.84;;;19.32;41.15
3844;BME280;1937;51.444;6.484;2023-04-10T14:09:42;68538.66;;;19.35;42.00
3844;BME280;1937;51.444;6.484;2023-04-10T14:12:10;68510.47;;;19.31;41.90
3844;BME280;1937;51.444;6.484;2023-04-10T14:14:37;68566.47;;;19.52;41.97
3844;BME280;1937;51.444;6.484;2023-04-10T14:17:05;68608.91;;;19.57;41.87
3844;BME280;1937;51.444;6.484;2023-04-10T14:19:32;68590.13;;;19.61;42.17
3844;BME280;1937;51.444;6.484;2023-04-10T14:21:59;68539.31;;;19.40;41.69
3844;BME280;1937;51.444;6.484;2023-04-10T14:24:26;68508.06;;;19.24;42.27
3844;BME280;1937;51.444;6.484;2023-04-10T14:26:52;68517.41;;;19.07;42.42
3844;BME280;1937;51.444;6.484;2023-04-10T14:29:23;68471.72;;;19.17;41.96
3844;BME280;1937;51.444;6.484;2023-04-10T14:31:49;68461.50;;;19.11;41.91
3844;BME280;1937;51.444;6.484;2023-04-10T14:34:17;68430.72;;;18.87;42.44
3844;BME280;1937;51.444;6.484;2023-04-10T14:36:44;68405.59;;;18.69;42.21
3844;BME280;1937;51.444;6.484;2023-04-10T14:39:11;68448.59;;;19.00;42.79
3844;BME280;1937;51.444;6.484;2023-04-10T14:41:37;68476.16;;;19.03;43.33
3844;BME280;1937;51.444;6.484;2023-04-10T14:44:04;68498.09;;;19.15;43.38
3844;BME280;1937;51.444;6.484;2023-04-10T14:46:31;68460.50;;;19.03;43.01
3844;BME280;1937;51.444;6.484;2023-04-10T14:48:57;68348.09;;;18.60;42.24
3844;BME280;1937;51.444;6.484;2023-04-10T15:04:21;68417.97;;;18.85;44.00
3844;BME280;1937;51.444;6.484;2023-04-10T15:06:48;68358.38;;;18.51;45.29
3844;BME280;1937;51.444;6.484;2023-04-10T15:09:15;68331.13;;;18.50;45.25
3844;BME280;1937;51.444;6.484;2023-04-10T15:11:42;68432.59;;;18.72;45.58
3844;BME280;1937;51.444;6.484;2023-04-10T15:14:08;68366.69;;;18.42;45.00
3844;BME280;1937;51.444;6.484;2023-04-10T15:16:36;68381.38;;;18.55;44.86
3844;BME280;1937;51.444;6.484;2023-04-10T15:19:03;68345.88;;;18.47;45.47
3844;BME280;1937;51.444;6.484;2023-04-10T15:21:31;68355.47;;;18.49;44.40
3844;BME280;1937;51.444;6.484;2023-04-10T15:23:57;68338.97;;;18.50;44.20
3844;BME280;1937;51.444;6.484;2023-04-10T15:26:25;68288.91;;;18.29;44.37
3844;BME280;1937;51.444;6.484;2023-04-10T15:28:52;68329.16;;;18.30;44.49
3844;BME280;1937;51.444;6.484;2023-04-10T15:31:21;68245.59;;;18.17;44.96
3844;BME280;1937;51.444;6.484;2023-04-10T15:33:49;68354.06;;;18.29;45.06
3844;BME280;1937;51.444;6.484;2023-04-10T15:36:16;68299.19;;;18.20;45.38
3844;BME280;1937;51.444;6.484;2023-04-10T15:38:45;68270.47;;;18.16;45.91
3844;BME280;1937;51.444;6.484;2023-04-10T15:41:12;68313.94;;;18.17;45.69
3844;BME280;1937;51.444;6.484;2023-04-10T15:43:39;68290.28;;;18.24;46.04
3844;BME280;1937;51.444;6.484;2023-04-10T15:46:07;68276.22;;;18.12;46.33
3844;BME280;1937;51.444;6.484;2023-04-10T15:48:33;68230.75;;;17.86;47.13
3844;BME280;1937;51.444;6.484;2023-04-10T15:51:02;68213.78;;;17.71;46.72
3844;BME280;1937;51.444;6.484;2023-04-10T15:54:00;68208.78;;;17.65;47.19
3844;BME280;1937;51.444;6.484;2023-04-10T15:56:29;68178.13;;;17.65;48.11
3844;BME280;1937;51.444;6.484;2023-04-10T15:58:56;68209.19;;;17.72;48.32
3844;BME280;1937;51.444;6.484;2023-04-10T16:01:23;68171.41;;;17.37;50.78
3844;BME280;1937;51.444;6.484;2023-04-10T16:03:50;68120.31;;;17.19;52.03
3844;BME280;1937;51.444;6.484;2023-04-10T16:06:17;68064.38;;;16.85;54.21
3844;BME280;1937;51.444;6.484;2023-04-10T16:08:44;68087.88;;;16.49;56.01
3844;BME280;1937;51.444;6.484;2023-04-10T16:11:12;68062.88;;;16.36;59.57
3844;BME280;1937;51.444;6.484;2023-04-10T16:13:39;67993.28;;;15.91;61.31
3844;BME280;1937;51.444;6.484;2023-04-10T16:16:06;67938.66;;;15.62;63.93
3844;BME280;1937;51.444;6.484;2023-04-10T16:18:36;67893.25;;;15.32;63.62
3844;BME280;1937;51.444;6.484;2023-04-10T16:21:14;67848.75;;;15.00;65.74
3844;BME280;1937;51.444;6.484;2023-04-10T16:23:40;67800.69;;;14.81;67.50
3844;BME280;1937;51.444;6.484;2023-04-10T16:26:07;67882.44;;;14.59;67.43
3844;BME280;1937;51.444;6.484;2023-04-10T16:28:35;67881.84;;;14.79;67.22
3844;BME280;1937;51.444;6.484;2023-04-10T16:31:05;67850.25;;;14.63;68.92
3844;BME280;1937;51.444;6.484;2023-04-10T16:33:46;67837.94;;;14.68;67.60
3844;BME280;1937;51.444;6.484;2023-04-10T16:36:13;67854.28;;;14.82;67.95
3844;BME280;1937;51.444;6.484;2023-04-10T16:38:40;67865.47;;;14.81;66.85
3844;BME280;1937;51.444;6.484;2023-04-10T16:41:08;67844.69;;;14.76;67.27
3844;BME280;1937;51.444;6.484;2023-04-10T16:43:38;67891.78;;;14.88;67.44
3844;BME280;1937;51.444;6.484;2023-04-10T16:46:08;67892.56;;;14.82;67.09
3844;BME280;1937;51.444;6.484;2023-04-10T16:48:49;67865.53;;;14.85;68.36
3844;BME280;1937;51.444;6.484;2023-04-10T16:51:25;67861.66;;;14.55;69.47
3844;BME280;1937;51.444;6.484;2023-04-10T16:53:55;67812.81;;;14.42;69.02
3844;BME280;1937;51.444;6.484;2023-04-10T16:56:22;67776.13;;;14.14;70.71
3844;BME280;1937;51.444;6.484;2023-04-10T16:58:50;67777.63;;;14.18;71.11
3844;BME280;1937;51.444;6.484;2023-04-10T17:01:19;67806.56;;;14.29;71.81
3844;BME280;1937;51.444;6.484;2023-04-10T17:03:52;67816.16;;;14.35;71.37
3844;BME280;1937;51.444;6.484;2023-04-10T17:06:22;67830.75;;;14.48;71.42
3844;BME280;1937;51.444;6.484;2023-04-10T17:08:49;67943.81;;;14.45;72.54
3844;BME280;1937;51.444;6.484;2023-04-10T17:11:16;67840.97;;;14.39;72.45
3844;BME280;1937;51.444;6.484;2023-04-10T17:13:44;67786.34;;;14.05;73.76
3844;BME280;1937;51.444;6.484;2023-04-10T17:16:26;67799.63;;;14.08;73.57
3844;BME280;1937;51.444;6.484;2023-04-10T17:18:53;67798.38;;;14.02;74.59
3844;BME280;1937;51.444;6.484;2023-04-10T17:21:20;67823.97;;;14.20;73.08
3844;BME280;1937;51.444;6.484;2023-04-10T17:23:47;67838.66;;;14.21;72.93
3844;BME280;1937;51.444;6.484;2023-04-10T17:26:15;67827.53;;;14.27;72.90
3844;BME280;1937;51.444;6.484;2023-04-10T17:28:45;67811.41;;;14.27;72.97
3844;BME280;1937;51.444;6.484;2023-04-10T17:31:16;67809.31;;;14.03;74.13
3844;BME280;1937;51.444;6.484;2023-04-10T17:33:44;67801.53;;;14.03;75.45
3844;BME280;1937;51.444;6.484;2023-04-10T17:36:11;67792.44;;;14.08;75.06
3844;BME280;1937;51.444;6.484;2023-04-10T17:38:39;67843.28;;;14.05;73.88
3844;BME280;1937;51.444;6.484;2023-04-10T17:41:06;67825.72;;;14.21;73.54
3844;BME280;1937;51.444;6.484;2023-04-10T17:43:34;67863.66;;;14.18;73.52
3844;BME280;1937;51.444;6.484;2023-04-10T17:46:01;67842.34;;;14.18;71.28
3844;BME280;1937;51.444;6.484;2023-04-10T17:48:27;67813.41;;;14.06;72.98
3844;BME280;1937;51.444;6.484;2023-04-10T17:51:05;67774.06;;;14.10;71.56
3844;BME280;1937;51.444;6.484;2023-04-10T17:53:33;67792.94;;;14.04;70.44
3844;BME280;1937;51.444;6.484;2023-04-10T17:56:00;67782.53;;;14.00;71.71
3844;BME280;1937;51.444;6.484;2023-04-10T17:58:26;67762.84;;;13.91;72.68
3844;BME280;1937;51.444;6.484;2023-04-10T18:00:53;67791.81;;;13.87;72.97
3844;BME280;1937;51.444;6.484;2023-04-10T18:03:21;67783.59;;;13.96;73.00
3844;BME280;1937;51.444;6.484;2023-04-10T18:05:48;67777.78;;;13.91;73.59
3844;BME280;1937;51.444;6.484;2023-04-10T18:08:17;67789.19;;;13.83;74.98
3844;BME280;1937;51.444;6.484;2023-04-10T18:10:50;67764.91;;;13.75;75.08
3844;BME280;1937;51.444;6.484;2023-04-10T18:13:17;67757.56;;;13.67;76.64
3844;BME280;1937;51.444;6.484;2023-04-10T18:15:44;67736.22;;;13.62;76.63
3844;BME280;1937;51.444;6.484;2023-04-10T18:18:11;67696.38;;;13.49;78.85
3844;BME280;1937;51.444;6.484;2023-04-10T18:20:38;67738.03;;;13.32;82.38
3844;BME280;1937;51.444;6.484;2023-04-10T18:23:04;67728.09;;;13.19;82.06
3844;BME280;1937;51.444;6.484;2023-04-10T18:25:33;67725.50;;;13.03;84.58
3844;BME280;1937;51.444;6.484;2023-04-10T18:28:00;67711.91;;;12.98;85.34
3844;BME280;1937;51.444;6.484;2023-04-10T18:30:27;67690.59;;;12.93;85.26
3844;BME280;1937;51.444;6.484;2023-04-10T18:32:54;67667.19;;;12.84;87.01
3844;BME280;1937;51.444;6.484;2023-04-10T18:35:23;67723.34;;;12.94;86.89
3844;BME280;1937;51.444;6.484;2023-04-10T18:37:51;67709.47;;;12.71;88.19
3844;BME280;1937;51.444;6.484;2023-04-10T18:40:21;67709.19;;;12.73;89.59
3844;BME280;1937;51.444;6.484;2023-04-10T18:42:53;67716.19;;;12.63;90.60
3844;BME280;1937;51.444;6.484;2023-04-10T18:45:27;67724.63;;;12.53;93.04
3844;BME280;1937;51.444;6.484;2023-04-10T18:47:59;67737.34;;;12.28;97.10
3844;BME280;1937;51.444;6.484;2023-04-10T18:50:33;67665.09;;;11.97;99.67
3844;BME280;1937;51.444;6.484;2023-04-10T18:53:07;67706.63;;;11.95;100.00
3844;BME280;1937;51.444;6.484;2023-04-10T18:55:34;67725.81;;;11.80;100.00
3844;BME280;1937;51.444;6.484;2023-04-10T18:58:02;67795.78;;;11.82;100.00
3844;BME280;1937;51.444;6.484;2023-04-10T19:00:29;67785.75;;;11.69;100.00
3844;BME280;1937;51.444;6.484;2023-04-10T19:02:56;67851.94;;;11.82;100.00
3844;BME280;1937;51.444;6.484;2023-04-10T19:05:23;67869.09;;;11.68;100.00
3844;BME280;1937;51.444;6.484;2023-04-10T19:07:51;67853.78;;;11.50;100.00
3844;BME280;1937;51.444;6.484;2023-04-10T19:10:25;67907.56;;;11.59;100.00
3844;BME280;1937;51.444;6.484;2023-04-10T19:12:52;67938.59;;;11.63;100.00
3844;BME280;1937;51.444;6.484;2023-04-10T19:15:22;67938.38;;;11.65;100.00
3844;BME280;1937;51.444;6.484;2023-04-10T19:17:51;67984.31;;;11.58;100.00
3844;BME280;1937;51.444;6.484;2023-04-10T19:20:18;67998.84;;;11.55;100.00
3844;BME280;1937;51.444;6.484;2023-04-10T19:22:45;68007.75;;;11.56;100.00
3844;BME280;1937;51.444;6.484;2023-04-10T19:25:12;68047.59;;;11.57;100.00
3844;BME280;1937;51.444;6.484;2023-04-10T19:27:39;68029.78;;;11.55;100.00
3844;BME280;1937;51.444;6.484;2023-04-10T19:30:06;68030.50;;;11.38;100.00
3844;BME280;1937;51.444;6.484;2023-04-10T19:32:34;68082.50;;;11.34;100.00
3844;BME280;1937;51.444;6.484;2023-04-10T19:35:01;68153.75;;;11.42;100.00
3844;BME280;1937;51.444;6.484;2023-04-10T19:37:28;68107.59;;;11.40;100.00
3844;BME280;1937;51.444;6.484;2023-04-10T19:39:55;68010.69;;;11.14;100.00
3844;BME280;1937;51.444;6.484;2023-04-10T19:42:22;68075.69;;;11.26;100.00
3844;BME280;1937;51.444;6.484;2023-04-10T19:44:49;68102.88;;;11.25;100.00
3844;BME280;1937;51.444;6.484;2023-04-10T19:47:16;68139.09;;;11.29;100.00
3844;BME280;1937;51.444;6.484;2023-04-10T19:49:44;68133.13;;;11.31;100.00
3844;BME280;1937;51.444;6.484;2023-04-10T19:52:14;68159.25;;;11.33;100.00
3844;BME280;1937;51.444;6.484;2023-04-10T19:54:40;68170.53;;;11.47;100.00
3844;BME280;1937;51.444;6.484;2023-04-10T19:57:07;68168.06;;;11.41;100.00
3844;BME280;1937;51.444;6.484;2023-04-10T19:59:35;68188.09;;;11.40;100.00
3844;BME280;1937;51.444;6.484;2023-04-10T20:02:02;68190.06;;;11.40;100.00
3844;BME280;1937;51.444;6.484;2023-04-10T20:04:29;68257.94;;;11.49;100.00
3844;BME280;1937;51.444;6.484;2023-04-10T20:06:58;68234.75;;;11.49;100.00
3844;BME280;1937;51.444;6.484;2023-04-10T20:09:24;68230.41;;;11.48;100.00
3844;BME280;1937;51.444;6.484;2023-04-10T20:11:51;68238.03;;;11.55;100.00
3844;BME280;1937;51.444;6.484;2023-04-10T20:14:21;68213.41;;;11.44;100.00
3844;BME280;1937;51.444;6.484;2023-04-10T20:16:48;68227.84;;;11.48;100.00
3844;BME280;1937;51.444;6.484;2023-04-10T20:19:15;68194.28;;;11.37;100.00
3844;BME280;1937;51.444;6.484;2023-04-10T20:21:57;68174.00;;;11.28;100.00
3844;BME280;1937;51.444;6.484;2023-04-10T20:24:24;68198.13;;;11.31;100.00
3844;BME280;1937;51.444;6.484;2023-04-10T20:26:51;68163.56;;;11.24;100.00
3844;BME280;1937;51.444;6.484;2023-04-10T20:29:17;68165.63;;;11.05;100.00
3844;BME280;1937;51.444;6.484;2023-04-10T20:31:44;68142.06;;;11.03;100.00
3844;BME280;1937;51.444;6.484;2023-04-10T20:34:11;68136.28;;;10.91;100.00
3844;BME280;1937;51.444;6.484;2023-04-10T20:36:38;68107.69;;;10.82;100.00
3844;BME280;1937;51.444;6.484;2023-04-10T20:39:06;68159.03;;;10.95;100.00
3844;BME280;1937;51.444;6.484;2023-04-10T20:41:33;68062.69;;;10.59;100.00
3844;BME280;1937;51.444;6.484;2023-04-10T20:44:00;68020.75;;;10.43;100.00
3844;BME280;1937;51.444;6.484;2023-04-10T20:46:26;68117.94;;;10.60;100.00
3844;BME280;1937;51.444;6.484;2023-04-10T20:48:53;68129.75;;;10.63;100.00
3844;BME280;1937;51.444;6.484;2023-04-10T20:51:21;68041.47;;;10.47;100.00
